sensor_id;sensor_type;location;lat;lon;timestamp;temperature;humidity
9849;DHT22;4963;51.444;6.528;2023-07-31T00:02:26;17.80;99.90
9849;DHT22;4963;51.444;6.528;2023-07-31T00:04:53;17.90;99.90
9849;DHT22;4963;51.444;6.528;2023-07-31T00:07:21;17.80;99.90
9849;DHT22;4963;51.444;6.528;2023-07-31T00:09:48;17.70;99.90
9849;DHT22;4963;51.444;6.528;2023-07-31T00:12:15;17.70;99.90
9849;DHT22;4963;51.444;6.528;2023-07-31T00:14:42;17.70;99.90
9849;DHT22;4963;51.444;6.528;2023-07-31T00:17:08;17.70;99.90
9849;DHT22;4963;51.444;6.528;2023-07-31T00:19:35;17.70;99.90
9849;DHT22;4963;51.444;6.528;2023-07-31T00:22:02;17.70;99.90
9849;DHT22;4963;51.444;6.528;2023-07-31T00:24:31;17.70;99.90
9849;DHT22;4963;51.444;6.528;2023-07-31T00:26:57;17.70;99.90
9849;DHT22;4963;51.444;6.528;2023-07-31T00:29:24;17.70;99.90
9849;DHT22;4963;51.444;6.528;2023-07-31T00:31:51;17.70;99.90
9849;DHT22;4963;51.444;6.528;2023-07-31T00:34:18;17.70;99.90
9849;DHT22;4963;51.444;6.528;2023-07-31T00:36:45;17.70;99.90
9849;DHT22;4963;51.444;6.528;2023-07-31T00:39:11;17.80;99.90
9849;DHT22;4963;51.444;6.528;2023-07-31T00:41:40;17.80;99.90
9849;DHT22;4963;51.444;6.528;2023-07-31T00:44:07;17.80;99.90
9849;DHT22;4963;51.444;6.528;2023-07-31T00:46:34;17.80;99.90
9849;DHT22;4963;51.444;6.528;2023-07-31T00:49:01;17.80;99.90
9849;DHT22;4963;51.444;6.528;2023-07-31T00:51:28;17.80;99.90
9849;DHT22;4963;51.444;6.528;2023-07-31T00:53:55;17.90;99.90
9849;DHT22;4963;51.444;6.528;2023-07-31T00:56:23;17.80;99.90
9849;DHT22;4963;51.444;6.528;2023-07-31T00:58:51;17.80;99.90
9849;DHT22;4963;51.444;6.528;2023-07-31T01:01:18;17.80;99.90
9849;DHT22;4963;51.444;6.528;2023-07-31T01:03:45;17.80;99.90
9849;DHT22;4963;51.444;6.528;2023-07-31T01:06:18;17.70;99.90
9849;DHT22;4963;51.444;6.528;2023-07-31T01:08:54;17.70;99.90
9849;DHT22;4963;51.444;6.528;2023-07-31T01:11:27;17.70;99.90
9849;DHT22;4963;51.444;6.528;2023-07-31T01:13:56;17.60;99.90
9849;DHT22;4963;51.444;6.528;2023-07-31T01:16:23;17.60;99.90
9849;DHT22;4963;51.444;6.528;2023-07-31T01:18:50;17.60;99.90
9849;DHT22;4963;51.444;6.528;2023-07-31T01:21:37;17.60;99.90
9849;DHT22;4963;51.444;6.528;2023-07-31T01:24:25;17.60;99.90
9849;DHT22;4963;51.444;6.528;2023-07-31T01:26:59;17.70;99.90
9849;DHT22;4963;51.444;6.528;2023-07-31T01:29:34;17.60;99.90
9849;DHT22;4963;51.444;6.528;2023-07-31T01:32:05;17.60;99.90
9849;DHT22;4963;51.444;6.528;2023-07-31T01:34:33;17.60;99.90
9849;DHT22;4963;51.444;6.528;2023-07-31T01:37:01;17.70;99.90
9849;DHT22;4963;51.444;6.528;2023-07-31T01:39:29;17.70;99.90
9849;DHT22;4963;51.444;6.528;2023-07-31T01:41:57;17.70;99.90
9849;DHT22;4963;51.444;6.528;2023-07-31T01:44:24;17.70;99.90
9849;DHT22;4963;51.444;6.528;2023-07-31T01:46:50;17.70;99.90
9849;DHT22;4963;51.444;6.528;2023-07-31T01:49:17;17.70;99.90
9849;DHT22;4963;51.444;6.528;2023-07-31T01:51:44;17.60;99.90
9849;DHT22;4963;51.444;6.528;2023-07-31T01:54:11;17.70;99.90
9849;DHT22;4963;51.444;6.528;2023-07-31T01:56:38;17.60;99.90
9849;DHT22;4963;51.444;6.528;2023-07-31T01:59:06;17.50;99.90
9849;DHT22;4963;51.444;6.528;2023-07-31T02:01:33;17.60;99.90
9849;DHT22;4963;51.444;6.528;2023-07-31T02:03:59;17.50;99.90
9849;DHT22;4963;51.444;6.528;2023-07-31T02:06:27;17.50;99.90
9849;DHT22;4963;51.444;6.528;2023-07-31T02:08:53;17.50;99.90
9849;DHT22;4963;51.444;6.528;2023-07-31T02:11:20;17.50;99.90
9849;DHT22;4963;51.444;6.528;2023-07-31T02:13:47;17.60;99.90
9849;DHT22;4963;51.444;6.528;2023-07-31T02:16:15;17.60;99.90
9849;DHT22;4963;51.444;6.528;2023-07-31T02:18:42;17.60;99.90
9849;DHT22;4963;51.444;6.528;2023-07-31T02:21:09;17.60;99.90
9849;DHT22;4963;51.444;6.528;2023-07-31T02:23:36;17.60;99.90
9849;DHT22;4963;51.444;6.528;2023-07-31T02:26:03;17.60;99.90
9849;DHT22;4963;51.444;6.528;2023-07-31T02:28:30;17.50;99.90
9849;DHT22;4963;51.444;6.528;2023-07-31T02:30:56;17.50;99.90
9849;DHT22;4963;51.444;6.528;2023-07-31T02:33:25;17.50;99.90
9849;DHT22;4963;51.444;6.528;2023-07-31T02:35:51;17.50;99.90
9849;DHT22;4963;51.444;6.528;2023-07-31T02:38:18;17.50;99.90
9849;DHT22;4963;51.444;6.528;2023-07-31T02:40:45;17.50;99.90
9849;DHT22;4963;51.444;6.528;2023-07-31T02:43:13;17.60;99.90
9849;DHT22;4963;51.444;6.528;2023-07-31T02:45:40;17.50;99.90
9849;DHT22;4963;51.444;6.528;2023-07-31T02:48:07;17.50;99.90
9849;DHT22;4963;51.444;6.528;2023-07-31T02:50:35;17.50;99.90
9849;DHT22;4963;51.444;6.528;2023-07-31T02:53:02;17.50;99.90
9849;DHT22;4963;51.444;6.528;2023-07-31T02:55:29;17.60;99.90
9849;DHT22;4963;51.444;6.528;2023-07-31T02:57:55;17.60;99.90
9849;DHT22;4963;51.444;6.528;2023-07-31T03:00:23;17.60;99.90
9849;DHT22;4963;51.444;6.528;2023-07-31T03:02:50;17.60;99.90
9849;DHT22;4963;51.444;6.528;2023-07-31T03:05:17;17.60;99.90
9849;DHT22;4963;51.444;6.528;2023-07-31T03:07:45;17.60;99.90
9849;DHT22;4963;51.444;6.528;2023-07-31T03:10:12;17.50;99.90
9849;DHT22;4963;51.444;6.528;2023-07-31T03:12:40;17.50;99.90
9849;DHT22;4963;51.444;6.528;2023-07-31T03:15:08;17.50;99.90
9849;DHT22;4963;51.444;6.528;2023-07-31T03:17:35;17.50;99.90
9849;DHT22;4963;51.444;6.528;2023-07-31T03:20:02;17.50;99.90
9849;DHT22;4963;51.444;6.528;2023-07-31T03:22:29;17.50;99.90
9849;DHT22;4963;51.444;6.528;2023-07-31T03:24:57;17.50;99.90
9849;DHT22;4963;51.444;6.528;2023-07-31T03:27:24;17.50;99.90
9849;DHT22;4963;51.444;6.528;2023-07-31T03:29:50;17.50;99.90
9849;DHT22;4963;51.444;6.528;2023-07-31T03:32:17;17.50;99.90
9849;DHT22;4963;51.444;6.528;2023-07-31T03:34:44;17.50;99.90
9849;DHT22;4963;51.444;6.528;2023-07-31T03:37:11;17.50;99.90
9849;DHT22;4963;51.444;6.528;2023-07-31T03:39:38;17.50;99.90
9849;DHT22;4963;51.444;6.528;2023-07-31T03:42:06;17.60;99.90
9849;DHT22;4963;51.444;6.528;2023-07-31T03:44:33;17.60;99.90
9849;DHT22;4963;51.444;6.528;2023-07-31T03:47:00;17.60;99.90
9849;DHT22;4963;51.444;6.528;2023-07-31T03:49:27;17.60;99.90
9849;DHT22;4963;51.444;6.528;2023-07-31T03:51:54;17.70;99.90
9849;DHT22;4963;51.444;6.528;2023-07-31T03:54:21;17.60;99.90
9849;DHT22;4963;51.444;6.528;2023-07-31T03:56:48;17.60;99.90
9849;DHT22;4963;51.444;6.528;2023-07-31T03:59:16;17.60;99.90
9849;DHT22;4963;51.444;6.528;2023-07-31T04:01:43;17.70;99.90
9849;DHT22;4963;51.444;6.528;2023-07-31T04:04:09;17.60;99.90
9849;DHT22;4963;51.444;6.528;2023-07-31T04:06:36;17.60;99.90
9849;DHT22;4963;51.444;6.528;2023-07-31T04:09:03;17.60;99.90
9849;DHT22;4963;51.444;6.528;2023-07-31T04:11:30;17.60;99.90
9849;DHT22;4963;51.444;6.528;2023-07-31T04:13:57;17.60;99.90
9849;DHT22;4963;51.444;6.528;2023-07-31T04:16:25;17.60;99.90
9849;DHT22;4963;51.444;6.528;2023-07-31T04:18:52;17.50;99.90
9849;DHT22;4963;51.444;6.528;2023-07-31T04:21:19;17.50;99.90
9849;DHT22;4963;51.444;6.528;2023-07-31T04:23:45;17.60;99.90
9849;DHT22;4963;51.444;6.528;2023-07-31T04:26:12;17.60;99.90
9849;DHT22;4963;51.444;6.528;2023-07-31T04:28:39;17.60;99.90
9849;DHT22;4963;51.444;6.528;2023-07-31T04:31:06;17.60;99.90
9849;DHT22;4963;51.444;6.528;2023-07-31T04:33:34;17.60;99.90
9849;DHT22;4963;51.444;6.528;2023-07-31T04:36:01;17.60;99.90
9849;DHT22;4963;51.444;6.528;2023-07-31T04:38:28;17.60;99.90
9849;DHT22;4963;51.444;6.528;2023-07-31T04:40:54;17.70;99.90
9849;DHT22;4963;51.444;6.528;2023-07-31T04:43:21;17.70;99.90
9849;DHT22;4963;51.444;6.528;2023-07-31T04:45:48;17.70;99.90
9849;DHT22;4963;51.444;6.528;2023-07-31T04:48:16;17.70;99.90
9849;DHT22;4963;51.444;6.528;2023-07-31T04:50:44;17.70;99.90
9849;DHT22;4963;51.444;6.528;2023-07-31T04:53:11;17.70;99.90
9849;DHT22;4963;51.444;6.528;2023-07-31T04:55:38;17.70;99.90
9849;DHT22;4963;51.444;6.528;2023-07-31T04:58:05;17.60;99.90
9849;DHT22;4963;51.444;6.528;2023-07-31T05:00:31;17.60;99.90
9849;DHT22;4963;51.444;6.528;2023-07-31T05:02:58;17.60;99.90
9849;DHT22;4963;51.444;6.528;2023-07-31T05:05:25;17.50;99.90
9849;DHT22;4963;51.444;6.528;2023-07-31T05:07:53;17.60;99.90
9849;DHT22;4963;51.444;6.528;2023-07-31T05:10:20;17.60;99.90
9849;DHT22;4963;51.444;6.528;2023-07-31T05:12:47;17.70;99.90
9849;DHT22;4963;51.444;6.528;2023-07-31T05:15:14;17.70;99.90
9849;DHT22;4963;51.444;6.528;2023-07-31T05:17:41;17.70;99.90
9849;DHT22;4963;51.444;6.528;2023-07-31T05:20:08;17.80;99.90
9849;DHT22;4963;51.444;6.528;2023-07-31T05:22:36;17.80;99.90
9849;DHT22;4963;51.444;6.528;2023-07-31T05:25:05;17.80;99.90
9849;DHT22;4963;51.444;6.528;2023-07-31T05:27:32;17.80;99.90
9849;DHT22;4963;51.444;6.528;2023-07-31T05:29:59;17.80;99.90
9849;DHT22;4963;51.444;6.528;2023-07-31T05:32:26;17.80;99.90
9849;DHT22;4963;51.444;6.528;2023-07-31T05:34:53;17.70;99.90
9849;DHT22;4963;51.444;6.528;2023-07-31T05:37:20;17.70;99.90
9849;DHT22;4963;51.444;6.528;2023-07-31T05:39:46;17.70;99.90
9849;DHT22;4963;51.444;6.528;2023-07-31T05:42:15;17.70;99.90
9849;DHT22;4963;51.444;6.528;2023-07-31T05:44:42;17.60;99.90
9849;DHT22;4963;51.444;6.528;2023-07-31T05:47:09;17.70;99.90
9849;DHT22;4963;51.444;6.528;2023-07-31T05:49:36;17.70;99.90
9849;DHT22;4963;51.444;6.528;2023-07-31T05:52:03;17.70;99.90
9849;DHT22;4963;51.444;6.528;2023-07-31T05:54:32;17.70;99.90
9849;DHT22;4963;51.444;6.528;2023-07-31T05:56:59;17.80;99.90
9849;DHT22;4963;51.444;6.528;2023-07-31T05:59:27;17.80;99.90
9849;DHT22;4963;51.444;6.528;2023-07-31T06:01:54;17.80;99.90
9849;DHT22;4963;51.444;6.528;2023-07-31T06:04:21;17.80;99.90
9849;DHT22;4963;51.444;6.528;2023-07-31T06:06:50;17.70;99.90
9849;DHT22;4963;51.444;6.528;2023-07-31T06:09:17;17.70;99.90
9849;DHT22;4963;51.444;6.528;2023-07-31T06:11:45;17.70;99.90
9849;DHT22;4963;51.444;6.528;2023-07-31T06:14:12;17.70;99.90
9849;DHT22;4963;51.444;6.528;2023-07-31T06:16:40;17.70;99.90
9849;DHT22;4963;51.444;6.528;2023-07-31T06:19:09;17.70;99.90
9849;DHT22;4963;51.444;6.528;2023-07-31T06:21:36;17.60;99.90
9849;DHT22;4963;51.444;6.528;2023-07-31T06:24:04;17.60;99.90
9849;DHT22;4963;51.444;6.528;2023-07-31T06:26:30;17.70;99.90
9849;DHT22;4963;51.444;6.528;2023-07-31T06:28:57;17.70;99.90
9849;DHT22;4963;51.444;6.528;2023-07-31T06:31:24;17.70;99.90
9849;DHT22;4963;51.444;6.528;2023-07-31T06:33:54;17.70;99.90
9849;DHT22;4963;51.444;6.528;2023-07-31T06:36:21;17.60;99.90
9849;DHT22;4963;51.444;6.528;2023-07-31T06:38:48;17.70;99.90
9849;DHT22;4963;51.444;6.528;2023-07-31T06:41:15;17.70;99.90
9849;DHT22;4963;51.444;6.528;2023-07-31T06:43:42;17.60;99.90
9849;DHT22;4963;51.444;6.528;2023-07-31T06:46:09;17.60;99.90
9849;DHT22;4963;51.444;6.528;2023-07-31T06:48:36;17.50;99.90
9849;DHT22;4963;51.444;6.528;2023-07-31T06:51:04;17.50;99.90
9849;DHT22;4963;51.444;6.528;2023-07-31T06:53:31;17.60;99.90
9849;DHT22;4963;51.444;6.528;2023-07-31T06:55:58;17.50;99.90
9849;DHT22;4963;51.444;6.528;2023-07-31T06:58:25;17.50;99.90
9849;DHT22;4963;51.444;6.528;2023-07-31T07:00:52;17.50;99.90
9849;DHT22;4963;51.444;6.528;2023-07-31T07:03:19;17.50;99.90
9849;DHT22;4963;51.444;6.528;2023-07-31T07:05:46;17.50;99.90
9849;DHT22;4963;51.444;6.528;2023-07-31T07:08:14;17.50;99.90
9849;DHT22;4963;51.444;6.528;2023-07-31T07:10:42;17.50;99.90
9849;DHT22;4963;51.444;6.528;2023-07-31T07:13:09;17.50;99.90
9849;DHT22;4963;51.444;6.528;2023-07-31T07:15:36;17.50;99.90
9849;DHT22;4963;51.444;6.528;2023-07-31T07:18:02;17.50;99.90
9849;DHT22;4963;51.444;6.528;2023-07-31T07:20:30;17.50;99.90
9849;DHT22;4963;51.444;6.528;2023-07-31T07:22:56;17.50;99.90
9849;DHT22;4963;51.444;6.528;2023-07-31T07:25:25;17.50;99.90
9849;DHT22;4963;51.444;6.528;2023-07-31T07:27:51;17.50;99.90
9849;DHT22;4963;51.444;6.528;2023-07-31T07:30:18;17.50;99.90
9849;DHT22;4963;51.444;6.528;2023-07-31T07:32:45;17.60;99.90
9849;DHT22;4963;51.444;6.528;2023-07-31T07:35:12;17.60;99.90
9849;DHT22;4963;51.444;6.528;2023-07-31T07:37:39;17.60;99.90
9849;DHT22;4963;51.444;6.528;2023-07-31T07:40:07;17.50;99.90
9849;DHT22;4963;51.444;6.528;2023-07-31T07:42:35;17.40;99.90
9849;DHT22;4963;51.444;6.528;2023-07-31T07:45:03;17.40;99.90
9849;DHT22;4963;51.444;6.528;2023-07-31T07:47:30;17.40;99.90
9849;DHT22;4963;51.444;6.528;2023-07-31T07:49:57;17.30;99.90
9849;DHT22;4963;51.444;6.528;2023-07-31T07:52:24;17.30;99.90
9849;DHT22;4963;51.444;6.528;2023-07-31T07:54:51;17.20;99.90
9849;DHT22;4963;51.444;6.528;2023-07-31T07:57:17;17.20;99.90
9849;DHT22;4963;51.444;6.528;2023-07-31T07:59:46;17.20;99.90
9849;DHT22;4963;51.444;6.528;2023-07-31T08:02:13;17.20;99.90
9849;DHT22;4963;51.444;6.528;2023-07-31T08:04:40;17.20;99.90
9849;DHT22;4963;51.444;6.528;2023-07-31T08:07:07;17.20;99.90
9849;DHT22;4963;51.444;6.528;2023-07-31T08:09:33;17.20;99.90
9849;DHT22;4963;51.444;6.528;2023-07-31T08:12:00;17.20;99.90
9849;DHT22;4963;51.444;6.528;2023-07-31T08:14:29;17.20;99.90
9849;DHT22;4963;51.444;6.528;2023-07-31T08:16:57;17.30;99.90
9849;DHT22;4963;51.444;6.528;2023-07-31T08:19:24;17.30;99.90
9849;DHT22;4963;51.444;6.528;2023-07-31T08:21:51;17.30;99.90
9849;DHT22;4963;51.444;6.528;2023-07-31T08:24:17;17.40;99.90
9849;DHT22;4963;51.444;6.528;2023-07-31T08:26:44;17.40;99.90
9849;DHT22;4963;51.444;6.528;2023-07-31T08:29:11;17.40;99.90
9849;DHT22;4963;51.444;6.528;2023-07-31T08:31:38;17.50;99.90
9849;DHT22;4963;51.444;6.528;2023-07-31T08:34:06;17.50;99.90
9849;DHT22;4963;51.444;6.528;2023-07-31T08:36:33;17.50;99.90
9849;DHT22;4963;51.444;6.528;2023-07-31T08:39:00;17.50;99.90
9849;DHT22;4963;51.444;6.528;2023-07-31T08:41:27;17.60;99.90
9849;DHT22;4963;51.444;6.528;2023-07-31T08:43:55;17.60;99.90
9849;DHT22;4963;51.444;6.528;2023-07-31T08:46:23;17.60;99.90
9849;DHT22;4963;51.444;6.528;2023-07-31T08:48:51;17.60;99.90
9849;DHT22;4963;51.444;6.528;2023-07-31T08:51:20;17.60;99.90
9849;DHT22;4963;51.444;6.528;2023-07-31T08:53:47;17.60;99.90
9849;DHT22;4963;51.444;6.528;2023-07-31T08:56:15;17.60;99.90
9849;DHT22;4963;51.444;6.528;2023-07-31T08:58:43;17.60;99.90
9849;DHT22;4963;51.444;6.528;2023-07-31T09:01:10;17.60;99.90
9849;DHT22;4963;51.444;6.528;2023-07-31T09:03:39;17.70;99.90
9849;DHT22;4963;51.444;6.528;2023-07-31T09:06:07;17.70;99.90
9849;DHT22;4963;51.444;6.528;2023-07-31T09:08:37;17.60;99.90
9849;DHT22;4963;51.444;6.528;2023-07-31T09:11:08;17.60;99.90
9849;DHT22;4963;51.444;6.528;2023-07-31T09:13:35;17.70;99.90
9849;DHT22;4963;51.444;6.528;2023-07-31T09:16:02;17.60;99.90
9849;DHT22;4963;51.444;6.528;2023-07-31T09:18:29;17.70;99.90
9849;DHT22;4963;51.444;6.528;2023-07-31T09:21:03;17.70;99.90
9849;DHT22;4963;51.444;6.528;2023-07-31T09:23:42;17.70;99.90
9849;DHT22;4963;51.444;6.528;2023-07-31T09:26:09;17.80;99.90
9849;DHT22;4963;51.444;6.528;2023-07-31T09:28:36;17.80;99.90
9849;DHT22;4963;51.444;6.528;2023-07-31T09:31:03;17.90;99.90
9849;DHT22;4963;51.444;6.528;2023-07-31T09:33:30;17.90;99.90
9849;DHT22;4963;51.444;6.528;2023-07-31T09:35:58;17.90;99.90
9849;DHT22;4963;51.444;6.528;2023-07-31T09:38:26;18.00;99.90
9849;DHT22;4963;51.444;6.528;2023-07-31T09:40:54;18.00;99.90
9849;DHT22;4963;51.444;6.528;2023-07-31T09:43:22;18.00;99.90
9849;DHT22;4963;51.444;6.528;2023-07-31T09:45:55;17.90;99.90
9849;DHT22;4963;51.444;6.528;2023-07-31T09:48:23;17.90;99.90
9849;DHT22;4963;51.444;6.528;2023-07-31T09:50:53;18.00;99.90
9849;DHT22;4963;51.444;6.528;2023-07-31T09:53:28;18.00;99.90
9849;DHT22;4963;51.444;6.528;2023-07-31T09:55:58;18.00;99.90
9849;DHT22;4963;51.444;6.528;2023-07-31T09:58:27;18.00;99.90
9849;DHT22;4963;51.444;6.528;2023-07-31T10:00:55;18.00;99.90
9849;DHT22;4963;51.444;6.528;2023-07-31T10:03:24;18.10;99.90
9849;DHT22;4963;51.444;6.528;2023-07-31T10:05:53;18.00;99.90
9849;DHT22;4963;51.444;6.528;2023-07-31T10:08:28;18.00;99.90
9849;DHT22;4963;51.444;6.528;2023-07-31T10:10:59;18.10;99.90
9849;DHT22;4963;51.444;6.528;2023-07-31T10:13:28;18.00;99.90
9849;DHT22;4963;51.444;6.528;2023-07-31T10:15:59;18.00;99.90
9849;DHT22;4963;51.444;6.528;2023-07-31T10:18:27;18.00;99.90
9849;DHT22;4963;51.444;6.528;2023-07-31T10:20:55;18.00;99.90
9849;DHT22;4963;51.444;6.528;2023-07-31T10:23:23;18.10;99.90
9849;DHT22;4963;51.444;6.528;2023-07-31T10:25:53;18.10;99.90
9849;DHT22;4963;51.444;6.528;2023-07-31T10:28:22;18.20;99.90
9849;DHT22;4963;51.444;6.528;2023-07-31T10:30:52;18.20;99.90
9849;DHT22;4963;51.444;6.528;2023-07-31T10:33:19;18.30;99.90
9849;DHT22;4963;51.444;6.528;2023-07-31T10:35:47;18.30;99.90
9849;DHT22;4963;51.444;6.528;2023-07-31T10:38:14;18.40;99.90
9849;DHT22;4963;51.444;6.528;2023-07-31T10:40:42;18.40;99.90
9849;DHT22;4963;51.444;6.528;2023-07-31T10:43:25;18.40;99.90
9849;DHT22;4963;51.444;6.528;2023-07-31T10:45:53;18.40;99.90
9849;DHT22;4963;51.444;6.528;2023-07-31T10:48:21;18.40;99.90
9849;DHT22;4963;51.444;6.528;2023-07-31T10:50:49;18.40;99.90
9849;DHT22;4963;51.444;6.528;2023-07-31T10:53:23;18.40;99.90
9849;DHT22;4963;51.444;6.528;2023-07-31T10:55:50;18.40;99.90
9849;DHT22;4963;51.444;6.528;2023-07-31T10:58:19;18.40;99.90
9849;DHT22;4963;51.444;6.528;2023-07-31T11:00:47;18.40;99.90
9849;DHT22;4963;51.444;6.528;2023-07-31T11:03:16;18.40;99.90
9849;DHT22;4963;51.444;6.528;2023-07-31T11:05:48;18.40;99.90
9849;DHT22;4963;51.444;6.528;2023-07-31T11:08:16;18.40;99.90
9849;DHT22;4963;51.444;6.528;2023-07-31T11:10:43;18.40;99.90
9849;DHT22;4963;51.444;6.528;2023-07-31T11:13:10;18.40;99.90
9849;DHT22;4963;51.444;6.528;2023-07-31T11:15:37;18.40;99.90
9849;DHT22;4963;51.444;6.528;2023-07-31T11:18:06;18.40;99.90
9849;DHT22;4963;51.444;6.528;2023-07-31T11:20:34;18.40;99.90
9849;DHT22;4963;51.444;6.528;2023-07-31T11:23:02;18.40;99.90
9849;DHT22;4963;51.444;6.528;2023-07-31T11:25:30;18.40;99.90
9849;DHT22;4963;51.444;6.528;2023-07-31T11:27:57;18.40;99.90
9849;DHT22;4963;51.444;6.528;2023-07-31T11:30:24;18.40;99.90
9849;DHT22;4963;51.444;6.528;2023-07-31T11:32:51;18.40;99.90
9849;DHT22;4963;51.444;6.528;2023-07-31T11:35:19;18.40;99.90
9849;DHT22;4963;51.444;6.528;2023-07-31T11:37:46;18.40;99.90
9849;DHT22;4963;51.444;6.528;2023-07-31T11:40:14;18.40;99.90
9849;DHT22;4963;51.444;6.528;2023-07-31T11:42:41;18.40;99.90
9849;DHT22;4963;51.444;6.528;2023-07-31T11:45:08;18.40;99.90
9849;DHT22;4963;51.444;6.528;2023-07-31T11:47:36;18.50;99.90
9849;DHT22;4963;51.444;6.528;2023-07-31T11:50:05;18.50;99.90
9849;DHT22;4963;51.444;6.528;2023-07-31T11:52:37;18.50;99.90
9849;DHT22;4963;51.444;6.528;2023-07-31T11:55:08;18.50;99.90
9849;DHT22;4963;51.444;6.528;2023-07-31T11:57:37;18.60;99.90
9849;DHT22;4963;51.444;6.528;2023-07-31T12:00:06;18.50;99.90
9849;DHT22;4963;51.444;6.528;2023-07-31T12:02:34;18.60;99.90
9849;DHT22;4963;51.444;6.528;2023-07-31T12:05:01;18.50;99.90
9849;DHT22;4963;51.444;6.528;2023-07-31T12:07:27;18.50;99.90
9849;DHT22;4963;51.444;6.528;2023-07-31T12:09:56;18.50;99.90
9849;DHT22;4963;51.444;6.528;2023-07-31T12:12:24;18.50;99.90
9849;DHT22;4963;51.444;6.528;2023-07-31T12:14:51;18.70;99.90
9849;DHT22;4963;51.444;6.528;2023-07-31T12:17:19;18.80;99.90
9849;DHT22;4963;51.444;6.528;2023-07-31T12:19:48;18.90;99.90
9849;DHT22;4963;51.444;6.528;2023-07-31T12:22:16;18.90;99.90
9849;DHT22;4963;51.444;6.528;2023-07-31T12:24:44;19.00;99.90
9849;DHT22;4963;51.444;6.528;2023-07-31T12:27:13;19.10;99.90
9849;DHT22;4963;51.444;6.528;2023-07-31T12:29:42;19.00;99.90
9849;DHT22;4963;51.444;6.528;2023-07-31T12:32:20;19.00;99.90
9849;DHT22;4963;51.444;6.528;2023-07-31T12:34:48;19.00;99.90
9849;DHT22;4963;51.444;6.528;2023-07-31T12:37:14;19.00;99.90
9849;DHT22;4963;51.444;6.528;2023-07-31T12:39:41;19.10;99.90
9849;DHT22;4963;51.444;6.528;2023-07-31T12:42:08;19.00;99.90
9849;DHT22;4963;51.444;6.528;2023-07-31T12:44:36;19.00;99.90
9849;DHT22;4963;51.444;6.528;2023-07-31T12:47:04;19.00;99.90
9849;DHT22;4963;51.444;6.528;2023-07-31T12:49:31;19.00;99.90
9849;DHT22;4963;51.444;6.528;2023-07-31T12:51:58;18.90;99.90
9849;DHT22;4963;51.444;6.528;2023-07-31T12:54:24;18.80;99.90
9849;DHT22;4963;51.444;6.528;2023-07-31T12:56:51;18.90;99.90
9849;DHT22;4963;51.444;6.528;2023-07-31T12:59:18;18.90;99.90
9849;DHT22;4963;51.444;6.528;2023-07-31T13:01:46;19.00;99.90
9849;DHT22;4963;51.444;6.528;2023-07-31T13:04:13;19.00;99.90
9849;DHT22;4963;51.444;6.528;2023-07-31T13:06:40;19.00;99.90
9849;DHT22;4963;51.444;6.528;2023-07-31T13:09:07;19.00;99.90
9849;DHT22;4963;51.444;6.528;2023-07-31T13:11:34;19.00;99.90
9849;DHT22;4963;51.444;6.528;2023-07-31T13:14:01;19.00;99.90
9849;DHT22;4963;51.444;6.528;2023-07-31T13:16:28;18.90;99.90
9849;DHT22;4963;51.444;6.528;2023-07-31T13:18:56;18.90;99.90
9849;DHT22;4963;51.444;6.528;2023-07-31T13:21:23;18.90;99.90
9849;DHT22;4963;51.444;6.528;2023-07-31T13:23:50;18.90;99.90
9849;DHT22;4963;51.444;6.528;2023-07-31T13:26:17;18.90;99.90
9849;DHT22;4963;51.444;6.528;2023-07-31T13:28:44;18.90;99.90
9849;DHT22;4963;51.444;6.528;2023-07-31T13:31:10;18.90;99.90
9849;DHT22;4963;51.444;6.528;2023-07-31T13:33:37;18.90;99.90
9849;DHT22;4963;51.444;6.528;2023-07-31T13:36:06;18.90;99.90
9849;DHT22;4963;51.444;6.528;2023-07-31T13:38:33;19.00;99.90
9849;DHT22;4963;51.444;6.528;2023-07-31T13:40:59;19.10;99.90
9849;DHT22;4963;51.444;6.528;2023-07-31T13:43:26;19.10;99.90
9849;DHT22;4963;51.444;6.528;2023-07-31T13:45:53;19.10;99.90
9849;DHT22;4963;51.444;6.528;2023-07-31T13:48:21;19.10;99.90
9849;DHT22;4963;51.444;6.528;2023-07-31T13:50:48;19.10;99.90
9849;DHT22;4963;51.444;6.528;2023-07-31T13:53:16;19.20;99.90
9849;DHT22;4963;51.444;6.528;2023-07-31T13:55:43;19.20;99.90
9849;DHT22;4963;51.444;6.528;2023-07-31T13:58:11;19.30;99.90
9849;DHT22;4963;51.444;6.528;2023-07-31T14:00:38;19.40;99.90
9849;DHT22;4963;51.444;6.528;2023-07-31T14:03:04;19.40;99.90
9849;DHT22;4963;51.444;6.528;2023-07-31T14:05:31;19.40;99.90
9849;DHT22;4963;51.444;6.528;2023-07-31T14:07:58;19.40;99.90
9849;DHT22;4963;51.444;6.528;2023-07-31T14:10:27;19.40;99.90
9849;DHT22;4963;51.444;6.528;2023-07-31T14:12:53;19.30;99.90
9849;DHT22;4963;51.444;6.528;2023-07-31T14:15:20;19.30;99.90
9849;DHT22;4963;51.444;6.528;2023-07-31T14:17:47;19.30;99.90
9849;DHT22;4963;51.444;6.528;2023-07-31T14:20:14;19.30;99.90
9849;DHT22;4963;51.444;6.528;2023-07-31T14:22:41;19.20;99.90
9849;DHT22;4963;51.444;6.528;2023-07-31T14:25:08;19.20;99.90
9849;DHT22;4963;51.444;6.528;2023-07-31T14:27:37;19.20;99.90
9849;DHT22;4963;51.444;6.528;2023-07-31T14:30:05;19.30;99.90
9849;DHT22;4963;51.444;6.528;2023-07-31T14:32:32;19.20;99.90
9849;DHT22;4963;51.444;6.528;2023-07-31T14:34:59;19.20;99.90
9849;DHT22;4963;51.444;6.528;2023-07-31T14:37:26;19.20;99.90
9849;DHT22;4963;51.444;6.528;2023-07-31T14:39:53;19.20;99.90
9849;DHT22;4963;51.444;6.528;2023-07-31T14:42:21;19.20;99.90
9849;DHT22;4963;51.444;6.528;2023-07-31T14:44:49;19.10;99.90
9849;DHT22;4963;51.444;6.528;2023-07-31T14:47:16;19.10;99.90
9849;DHT22;4963;51.444;6.528;2023-07-31T14:49:43;19.10;99.90
9849;DHT22;4963;51.444;6.528;2023-07-31T14:52:10;19.10;99.90
9849;DHT22;4963;51.444;6.528;2023-07-31T14:54:37;19.00;99.90
9849;DHT22;4963;51.444;6.528;2023-07-31T14:57:04;19.10;99.90
9849;DHT22;4963;51.444;6.528;2023-07-31T14:59:31;19.00;99.90
9849;DHT22;4963;51.444;6.528;2023-07-31T15:02:00;19.00;99.90
9849;DHT22;4963;51.444;6.528;2023-07-31T15:04:27;19.00;99.90
9849;DHT22;4963;51.444;6.528;2023-07-31T15:06:54;19.00;99.90
9849;DHT22;4963;51.444;6.528;2023-07-31T15:09:21;19.00;99.90
9849;DHT22;4963;51.444;6.528;2023-07-31T15:11:48;19.00;99.90
9849;DHT22;4963;51.444;6.528;2023-07-31T15:14:15;19.00;99.90
9849;DHT22;4963;51.444;6.528;2023-07-31T15:16:42;19.10;99.90
9849;DHT22;4963;51.444;6.528;2023-07-31T15:19:10;19.00;99.90
9849;DHT22;4963;51.444;6.528;2023-07-31T15:21:37;19.00;99.90
9849;DHT22;4963;51.444;6.528;2023-07-31T15:24:04;19.00;99.90
9849;DHT22;4963;51.444;6.528;2023-07-31T15:26:31;19.00;99.90
9849;DHT22;4963;51.444;6.528;2023-07-31T15:29:01;19.00;99.90
9849;DHT22;4963;51.444;6.528;2023-07-31T15:31:29;19.00;99.90
9849;DHT22;4963;51.444;6.528;2023-07-31T15:33:56;19.00;99.90
9849;DHT22;4963;51.444;6.528;2023-07-31T15:36:24;19.00;99.90
9849;DHT22;4963;51.444;6.528;2023-07-31T15:38:51;19.10;99.90
9849;DHT22;4963;51.444;6.528;2023-07-31T15:41:18;19.00;99.90
9849;DHT22;4963;51.444;6.528;2023-07-31T15:43:45;19.00;99.90
9849;DHT22;4963;51.444;6.528;2023-07-31T15:46:13;18.90;99.90
9849;DHT22;4963;51.444;6.528;2023-07-31T15:48:40;18.80;99.90
9849;DHT22;4963;51.444;6.528;2023-07-31T15:51:07;18.80;99.90
9849;DHT22;4963;51.444;6.528;2023-07-31T15:53:36;18.70;99.90
9849;DHT22;4963;51.444;6.528;2023-07-31T15:56:03;18.60;99.90
9849;DHT22;4963;51.444;6.528;2023-07-31T15:58:30;18.60;99.90
9849;DHT22;4963;51.444;6.528;2023-07-31T16:00:58;18.60;99.90
9849;DHT22;4963;51.444;6.528;2023-07-31T16:03:25;18.50;99.90
9849;DHT22;4963;51.444;6.528;2023-07-31T16:05:52;18.50;99.90